Current Weather

Monroe Muni

Monroe, Wisconsin (KEFT)

Report from: Wednesday, August 17, 2022 7:55 PM CDT
Current time: Wednesday, August 17, 2022 8:18 PM CDT

Nearby weather
Weather history
Weather forecast

Temperature23.6°C (74.5°F)
Dew point14.3°C (57.7°F)
Winds 3 kts (1.5 m/s, 3.5 mph) North (10°)
Visibility10 mi. (16.1 km)
Clouds Sky clear
Altimeter30.09 in.Hg (1019 mB)
Relative humidity56 %
Density altitude1,033 ft. (315 m)
Remarks Fully automated report
Automated weather observing station with precipitation discriminator
Flight conditions Visual Meteorological Conditions
Raw dataKEFT 180055Z AUTO 01003KT 10SM CLR 24/14 A3009 RMK AO2 T02360143
An error has occurred. This application may no longer respond until reloaded. Reload 🗙